Hereford, AZ

6:31 AM MST on January 30, 2015 (GMT -0700)
Cindi Way, De La Rosa 2 | Change Station
CLOSE
Current Station
Personal Weather Station
Location: Hereford, AZ
Elevation: 4650 ft
Nearby Weather Stations
Active Advisory: Areal Flood Advisory Active Notice: Public Information Statement

Elev 4650 ft 31.46 °N, 110.23 °W | Updated 1 minute ago

Rain
Rain
48.0 °F
Feels Like 45 °F
N
6.3
Wind Variable Wind from ENE
Gusts 12.3 mph

Today
High -- | Low -- °F
--% Chance of Precip.
Yesterday
High -- | Low -- °F
Precip. -- in
7:14 AM 5:53 PM
Waxing Gibbous, 82% visible
Pressure 29.93 in
Visibility 7.0 miles
Clouds Scattered Clouds 500 ft
Mostly Cloudy 3600 ft
Overcast 6000 ft
Windchill 45 °F
Dew Point 48 °F
Humidity 100%
Rainfall 0.46 in
Snow Depth Not available.
UV 0.0 out of 12
Pollen .50 out of 12
Air Quality Not available.
Flu Activity Not available.
METAR KFHU 301255Z 12005KT 7SM -RA SCT005 BKN036 OVC060 09/09 A3002 RMK SLP135

More Conditions Fewer Conditions

Pressure 29.93 in
Visibility 7.0 miles
Clouds Scattered Clouds 500 ft
Mostly Cloudy 3600 ft
Overcast 6000 ft
Windchill 45 °F
Dew Point 48 °F
Humidity 100%
Rainfall 0.46 in
Snow Depth Not available.
UV 0.0 out of 12
Pollen .50 out of 12
Air Quality Not available.
Flu Activity Not available.
METAR KFHU 301255Z 12005KT 7SM -RA SCT005 BKN036 OVC060 09/09 A3002 RMK SLP135

More Conditions Fewer Conditions

Nowcast | as of 6:30 am MST on January 30, 2015

Widespread moderate rainfall...mainly along and east of a Tucson to Nogales line...will move northeast at 20 mph through daybreak. These showers will produce generally a tenth to a quarter inch of valley rain between 630 and 830 am. Localized areas of brief heavy rain will produce up to a half inch of rain. Heavy rainfall over the past several hours in the higher terrain of southeast Cochise as well as the Catalina and Rincon Mountains in eastern Pima County will result in water flowing in small creeks and washes. Exercise caution...and never attempt to cross through running water of unknown depth this morning.

×

10-Day Weather Forecast

Almanac

Astronomy

Jan. 30, 2015 Rise Set
Actual Time
Civil Twilight
Nautical Twilight
Astronomical Twilight
Moon
Length of Visible Light
Length of Day
Tomorrow will be .
, % of the Moon is Illuminated

Today's Extremes

State Highs State Lows

Community

WunderPhotos

Upload Photos

1,791,751 photos uploaded!

WunderBlogs® & News

Nearby

Air Quality

  Air Quality AQ Index Pollutant
Not available.

Snow Depth

Station Depth Elevation

Earthquake Activity

City Distance Mag. Time & Date
Minimum magnitude displayed is 2.5.

Coastal Water Temperatures

Place Temperature

Nearby Weather Stations